createdAt,value
2022-10-14T00:01:43.786Z,16.60
2022-10-14T00:04:12.467Z,16.60
2022-10-14T00:06:41.435Z,16.70
2022-10-14T00:09:12.271Z,16.40
2022-10-14T00:11:41.439Z,16.50
2022-10-14T00:14:14.063Z,16.70
2022-10-14T00:16:45.820Z,16.70
2022-10-14T00:19:16.273Z,16.80
2022-10-14T00:21:46.807Z,17.00
2022-10-14T00:24:19.147Z,16.90
2022-10-14T00:26:48.088Z,16.80
2022-10-14T00:29:20.950Z,16.80
2022-10-14T00:31:52.148Z,16.80
2022-10-14T00:34:21.360Z,16.90
2022-10-14T00:36:50.221Z,17.00
2022-10-14T00:39:21.207Z,17.00
2022-10-14T00:41:53.193Z,17.00
2022-10-14T00:45:00.174Z,17.10
2022-10-14T00:47:31.684Z,16.80
2022-10-14T00:50:02.201Z,16.80
2022-10-14T00:52:31.245Z,16.90
2022-10-14T00:55:03.538Z,16.90
2022-10-14T00:57:32.832Z,17.00
2022-10-14T01:00:07.629Z,17.00
2022-10-14T01:02:37.760Z,17.00
2022-10-14T01:05:08.472Z,17.00
2022-10-14T01:07:46.885Z,17.00
2022-10-14T01:10:21.503Z,17.00
2022-10-14T01:13:02.067Z,16.90
2022-10-14T01:15:40.060Z,16.80
2022-10-14T01:18:24.410Z,16.80
2022-10-14T01:21:08.399Z,16.80
2022-10-14T01:24:15.217Z,16.90
2022-10-14T01:27:00.791Z,17.00
2022-10-14T01:30:08.185Z,16.90
2022-10-14T01:32:43.996Z,16.80
2022-10-14T01:35:21.147Z,16.80
2022-10-14T01:37:54.500Z,16.90
2022-10-14T01:40:28.338Z,16.90
2022-10-14T01:43:05.773Z,16.90
2022-10-14T01:45:39.223Z,16.80
2022-10-14T01:48:09.154Z,16.80
2022-10-14T01:50:43.973Z,16.90
2022-10-14T01:53:18.691Z,16.90
2022-10-14T01:55:49.892Z,17.00
2022-10-14T01:58:25.850Z,16.90
2022-10-14T02:00:57.441Z,16.90
2022-10-14T02:03:26.032Z,16.80
2022-10-14T02:06:01.505Z,16.80
2022-10-14T02:08:40.457Z,16.70
2022-10-14T02:11:12.913Z,16.70
2022-10-14T02:13:53.405Z,16.70
2022-10-14T02:16:33.892Z,16.70
2022-10-14T02:19:10.036Z,16.80
2022-10-14T02:21:42.783Z,16.90
2022-10-14T02:24:24.665Z,16.90
2022-10-14T02:26:56.246Z,16.70
2022-10-14T02:29:27.187Z,16.70
2022-10-14T02:31:58.603Z,16.80
2022-10-14T02:34:28.812Z,16.90
2022-10-14T02:36:57.434Z,16.80
2022-10-14T02:39:31.496Z,16.80
2022-10-14T02:42:00.687Z,16.70
2022-10-14T02:44:29.459Z,16.80
2022-10-14T02:46:59.954Z,16.80
2022-10-14T02:49:30.386Z,16.90
2022-10-14T02:51:59.132Z,17.00
2022-10-14T02:54:30.785Z,17.10
2022-10-14T02:56:59.808Z,16.90
2022-10-14T02:59:28.950Z,16.90
2022-10-14T03:02:00.422Z,16.90
2022-10-14T03:04:29.848Z,17.00
2022-10-14T03:06:58.754Z,17.00
2022-10-14T03:09:27.799Z,17.00
2022-10-14T03:12:01.313Z,16.90
2022-10-14T03:14:33.055Z,16.90
2022-10-14T03:17:04.168Z,16.90
2022-10-14T03:19:35.578Z,17.00
2022-10-14T03:22:04.412Z,17.00
2022-10-14T03:24:33.955Z,16.90
2022-10-14T03:27:20.726Z,16.80
2022-10-14T03:29:53.791Z,16.70
2022-10-14T03:32:26.509Z,16.80
2022-10-14T03:35:13.231Z,16.80
2022-10-14T03:37:44.805Z,16.80
2022-10-14T03:40:14.981Z,16.90
2022-10-14T03:42:43.415Z,17.10
2022-10-14T03:45:13.193Z,17.10
2022-10-14T03:47:46.927Z,17.10
2022-10-14T03:50:15.997Z,17.00
2022-10-14T03:52:55.627Z,17.00
2022-10-14T03:55:35.513Z,16.90
2022-10-14T03:58:06.092Z,16.90
2022-10-14T04:00:35.950Z,16.80
2022-10-14T04:03:31.836Z,16.90
2022-10-14T04:06:01.504Z,16.90
2022-10-14T04:08:31.318Z,16.90
2022-10-14T04:11:04.995Z,16.90
2022-10-14T04:13:38.918Z,16.90
2022-10-14T04:16:10.294Z,16.80
2022-10-14T04:18:56.846Z,16.70
2022-10-14T04:21:25.490Z,16.80
2022-10-14T04:23:55.060Z,16.90
2022-10-14T04:26:38.300Z,16.70
2022-10-14T04:29:14.063Z,16.80
2022-10-14T04:31:55.026Z,16.80
2022-10-14T04:34:25.846Z,16.90
2022-10-14T04:36:55.269Z,16.80
2022-10-14T04:39:36.764Z,16.80
2022-10-14T04:42:06.339Z,16.80
2022-10-14T04:44:35.503Z,16.80
2022-10-14T04:47:05.332Z,16.80
2022-10-14T04:49:36.331Z,16.50
2022-10-14T04:52:11.738Z,16.50
2022-10-14T04:54:49.794Z,16.60
2022-10-14T04:57:23.689Z,16.70
2022-10-14T04:59:52.504Z,16.70
2022-10-14T05:02:24.129Z,16.90
2022-10-14T05:05:00.992Z,16.80
2022-10-14T05:07:36.011Z,16.90
2022-10-14T05:10:23.644Z,16.90
2022-10-14T05:12:53.071Z,17.00
2022-10-14T05:15:22.858Z,17.00
2022-10-14T05:18:03.686Z,17.00
2022-10-14T05:20:52.670Z,17.00
2022-10-14T05:23:23.976Z,16.90
2022-10-14T05:25:53.579Z,16.90
2022-10-14T05:28:23.392Z,16.90
2022-10-14T05:30:52.796Z,17.00
2022-10-14T05:33:23.304Z,16.90
2022-10-14T05:35:59.223Z,17.10
2022-10-14T05:38:33.772Z,17.10
2022-10-14T05:41:06.073Z,17.10
2022-10-14T05:43:34.912Z,16.80
2022-10-14T05:46:07.157Z,16.90
2022-10-14T05:48:39.663Z,16.90
2022-10-14T05:51:11.115Z,16.80
2022-10-14T05:53:41.054Z,17.00
2022-10-14T05:56:16.353Z,17.00
2022-10-14T05:58:45.592Z,16.80
2022-10-14T06:01:14.781Z,16.80
2022-10-14T06:03:44.133Z,16.90
2022-10-14T06:06:15.653Z,16.90
2022-10-14T06:08:45.201Z,16.90
2022-10-14T06:11:13.982Z,17.00
2022-10-14T06:13:43.115Z,16.70
2022-10-14T06:16:12.057Z,16.70
2022-10-14T06:18:40.978Z,16.70
2022-10-14T06:21:10.642Z,16.70
2022-10-14T06:23:40.194Z,16.70
2022-10-14T06:26:09.736Z,16.80
2022-10-14T06:28:38.259Z,16.90
2022-10-14T06:31:08.159Z,17.00
2022-10-14T06:33:36.464Z,16.90
2022-10-14T06:36:05.597Z,17.00
2022-10-14T06:38:33.915Z,16.80
2022-10-14T06:41:06.321Z,16.90
2022-10-14T06:43:35.378Z,16.90
2022-10-14T06:46:04.484Z,16.90
2022-10-14T06:48:32.883Z,17.00
2022-10-14T06:51:01.577Z,17.10
2022-10-14T06:53:31.497Z,17.20
2022-10-14T06:56:01.094Z,17.10
2022-10-14T06:58:31.432Z,17.10
2022-10-14T07:01:03.490Z,17.10
2022-10-14T07:03:31.704Z,17.10
2022-10-14T07:05:59.839Z,17.20
2022-10-14T07:08:28.097Z,17.10
2022-10-14T07:10:56.238Z,17.20
2022-10-14T07:13:24.390Z,17.10
2022-10-14T07:15:53.913Z,17.10
2022-10-14T07:18:22.307Z,17.10
2022-10-14T07:20:50.735Z,17.20
2022-10-14T07:23:18.873Z,17.20
2022-10-14T07:25:46.997Z,17.10
2022-10-14T07:28:15.267Z,17.10
2022-10-14T07:30:43.464Z,17.20
2022-10-14T07:33:13.232Z,17.40
2022-10-14T07:35:41.376Z,17.40
2022-10-14T07:38:09.512Z,17.40
2022-10-14T07:40:37.688Z,17.50
2022-10-14T07:43:05.811Z,17.50
2022-10-14T07:45:35.974Z,17.50
2022-10-14T07:48:04.311Z,17.50
2022-10-14T07:50:33.857Z,17.50
2022-10-14T07:53:02.066Z,17.60
2022-10-14T07:55:30.287Z,17.50
2022-10-14T07:57:58.549Z,17.40
2022-10-14T08:00:26.766Z,17.40
2022-10-14T08:02:55.954Z,17.60
2022-10-14T08:05:39.483Z,17.70
2022-10-14T08:08:09.670Z,17.60
2022-10-14T08:10:38.977Z,17.80
2022-10-14T08:13:07.726Z,17.80
2022-10-14T08:15:38.786Z,17.90
2022-10-14T08:18:07.430Z,17.90
2022-10-14T08:20:36.490Z,17.80
2022-10-14T08:23:05.324Z,17.90
2022-10-14T08:25:37.390Z,18.00
2022-10-14T08:28:05.815Z,18.00
2022-10-14T08:30:34.959Z,18.10
2022-10-14T08:33:03.136Z,18.20
2022-10-14T08:35:31.556Z,18.30
2022-10-14T08:38:00.899Z,18.20
2022-10-14T08:40:29.872Z,18.40
2022-10-14T08:43:05.483Z,18.30
2022-10-14T08:45:36.023Z,18.40
2022-10-14T08:48:10.426Z,18.40
2022-10-14T08:50:42.403Z,18.40
2022-10-14T08:53:15.216Z,18.40
2022-10-14T08:55:47.632Z,18.40
2022-10-14T09:00:56.240Z,18.30
2022-10-14T09:03:32.954Z,18.10
2022-10-14T09:06:04.718Z,18.10
2022-10-14T09:08:38.115Z,18.20
2022-10-14T09:11:09.181Z,17.90
2022-10-14T09:13:41.698Z,18.00
2022-10-14T09:16:15.649Z,18.00
2022-10-14T09:18:50.992Z,18.10
2022-10-14T09:21:47.889Z,18.30
2022-10-14T09:24:22.391Z,18.20
2022-10-14T09:26:52.491Z,18.20
2022-10-14T09:29:27.160Z,18.10
2022-10-14T09:31:58.619Z,18.00
2022-10-14T09:34:32.778Z,17.90
2022-10-14T09:37:19.444Z,18.10
2022-10-14T09:39:48.997Z,17.90
2022-10-14T09:42:20.940Z,18.00
2022-10-14T09:45:10.246Z,18.10
2022-10-14T09:47:47.706Z,18.30
2022-10-14T09:50:24.022Z,18.60
2022-10-14T09:53:01.538Z,18.60
2022-10-14T09:55:30.505Z,18.60
2022-10-14T09:58:14.598Z,18.80
2022-10-14T10:00:44.424Z,18.90
2022-10-14T10:03:27.066Z,18.50
2022-10-14T10:06:04.404Z,18.80
2022-10-14T10:08:33.033Z,18.90
2022-10-14T10:11:06.747Z,18.70
2022-10-14T10:13:44.936Z,18.90
2022-10-14T10:16:23.893Z,19.30
2022-10-14T10:18:54.150Z,19.60
2022-10-14T10:21:25.731Z,19.60
2022-10-14T10:23:57.531Z,19.40
2022-10-14T10:26:29.411Z,19.60
2022-10-14T10:28:59.592Z,19.60
2022-10-14T10:34:39.880Z,20.00
2022-10-14T10:37:28.703Z,19.90
2022-10-14T10:40:28.478Z,19.50
2022-10-14T10:43:40.046Z,19.30
2022-10-14T10:46:21.273Z,19.20
2022-10-14T10:49:01.374Z,19.20
2022-10-14T10:51:39.965Z,18.70
2022-10-14T10:54:14.079Z,18.70
2022-10-14T10:56:46.944Z,19.00
2022-10-14T10:59:36.360Z,19.00
2022-10-14T11:02:38.111Z,19.00
2022-10-14T11:05:13.673Z,19.10
2022-10-14T11:08:11.508Z,19.10
2022-10-14T11:11:08.970Z,19.10
2022-10-14T11:13:46.540Z,18.90
2022-10-14T11:16:21.970Z,19.00
2022-10-14T11:18:52.237Z,19.20
2022-10-14T11:21:34.491Z,19.40
2022-10-14T11:24:11.001Z,19.40
2022-10-14T11:26:59.364Z,18.90
2022-10-14T11:29:50.623Z,19.40
2022-10-14T11:32:24.458Z,18.90
2022-10-14T11:35:07.292Z,18.90
2022-10-14T11:37:48.590Z,19.10
2022-10-14T11:40:25.675Z,19.30
2022-10-14T11:43:07.111Z,19.00
2022-10-14T11:45:55.655Z,18.60
2022-10-14T11:48:33.632Z,18.20
2022-10-14T11:51:11.199Z,18.00
2022-10-14T11:53:56.178Z,18.40
2022-10-14T11:56:37.718Z,18.30
2022-10-14T11:59:29.227Z,18.30
2022-10-14T12:02:16.937Z,18.40
2022-10-14T12:04:51.487Z,18.60
2022-10-14T12:07:28.064Z,18.50
2022-10-14T12:10:01.648Z,18.40
2022-10-14T12:12:31.816Z,18.70
2022-10-14T12:15:04.526Z,18.80
2022-10-14T12:17:37.413Z,19.10
2022-10-14T12:20:17.036Z,19.30
2022-10-14T12:22:48.061Z,19.00
2022-10-14T12:25:20.732Z,19.00
2022-10-14T12:27:50.774Z,18.70
2022-10-14T12:30:39.394Z,18.40
2022-10-14T12:33:10.092Z,18.30
2022-10-14T12:35:50.752Z,18.60
2022-10-14T12:38:21.958Z,18.40
2022-10-14T12:40:51.567Z,18.50
2022-10-14T12:43:26.475Z,18.40
2022-10-14T12:46:16.089Z,18.50
2022-10-14T12:48:51.636Z,18.60
2022-10-14T12:51:22.986Z,18.60
2022-10-14T12:54:15.890Z,18.30
2022-10-14T12:56:58.239Z,18.20
2022-10-14T12:59:31.627Z,18.10
2022-10-14T13:02:04.467Z,18.00
2022-10-14T13:04:33.657Z,18.10
2022-10-14T13:07:46.724Z,18.10
2022-10-14T13:10:47.232Z,18.30
2022-10-14T13:13:53.445Z,18.30
2022-10-14T13:17:00.928Z,18.10
2022-10-14T13:19:47.605Z,18.20
2022-10-14T13:22:43.635Z,18.40
2022-10-14T13:25:22.402Z,18.50
2022-10-14T13:28:11.404Z,18.40
2022-10-14T13:30:50.101Z,18.30
2022-10-14T13:33:27.614Z,18.40
2022-10-14T13:36:05.617Z,18.50
2022-10-14T13:38:36.109Z,18.60
2022-10-14T13:41:06.051Z,18.60
2022-10-14T13:43:40.542Z,18.40
2022-10-14T13:46:15.043Z,18.40
2022-10-14T13:48:49.119Z,18.50
2022-10-14T13:51:36.461Z,18.50
2022-10-14T13:54:16.398Z,18.60
2022-10-14T13:56:45.106Z,18.50
2022-10-14T13:59:43.288Z,18.40
2022-10-14T14:02:15.567Z,18.50
2022-10-14T14:04:51.798Z,18.50
2022-10-14T14:07:59.113Z,18.70
2022-10-14T14:10:18.733Z,18.60
2022-10-14T14:12:47.778Z,18.60
2022-10-14T14:15:24.383Z,18.70
2022-10-14T14:17:52.794Z,18.40
2022-10-14T14:20:25.340Z,18.40
2022-10-14T14:22:54.907Z,18.40
2022-10-14T14:25:35.879Z,18.70
2022-10-14T14:28:15.584Z,18.70
2022-10-14T14:30:54.687Z,18.90
2022-10-14T14:33:30.134Z,18.90
2022-10-14T14:36:02.318Z,18.90
2022-10-14T14:38:32.203Z,18.80
2022-10-14T14:41:05.601Z,18.70
2022-10-14T14:43:39.664Z,18.80
2022-10-14T14:46:18.093Z,18.80
2022-10-14T14:48:52.111Z,18.80
2022-10-14T14:51:24.787Z,18.70
2022-10-14T14:53:55.070Z,18.80
2022-10-14T14:56:28.493Z,18.70
2022-10-14T14:58:59.089Z,18.40
2022-10-14T15:01:29.215Z,18.40
2022-10-14T15:04:12.313Z,18.60
2022-10-14T15:06:51.181Z,18.50
2022-10-14T15:09:23.964Z,18.40
2022-10-14T15:11:54.641Z,18.40
2022-10-14T15:14:34.698Z,18.10
2022-10-14T15:17:05.675Z,18.20
2022-10-14T15:19:38.805Z,18.20
2022-10-14T15:22:23.975Z,18.30
2022-10-14T15:24:59.850Z,18.30
2022-10-14T15:27:43.010Z,18.30
2022-10-14T15:30:31.666Z,18.50
2022-10-14T15:33:02.024Z,18.20
2022-10-14T15:35:31.190Z,18.10
2022-10-14T15:38:01.339Z,18.10
2022-10-14T15:40:32.290Z,18.00
2022-10-14T15:43:00.516Z,17.90
2022-10-14T15:45:29.637Z,18.00
2022-10-14T15:48:04.183Z,17.90
2022-10-14T15:50:32.553Z,17.80
2022-10-14T15:53:02.056Z,18.00
2022-10-14T15:55:35.310Z,17.90
2022-10-14T15:58:05.166Z,18.00
2022-10-14T16:00:34.959Z,18.00
2022-10-14T16:03:05.888Z,18.20
2022-10-14T16:05:34.314Z,18.30
2022-10-14T16:08:04.572Z,17.90
2022-10-14T16:10:34.331Z,18.10
2022-10-14T16:13:03.509Z,18.00
2022-10-14T16:15:36.561Z,18.00
2022-10-14T16:18:05.165Z,18.00
2022-10-14T16:20:33.540Z,18.20
2022-10-14T16:23:04.397Z,18.10
2022-10-14T16:25:38.753Z,18.00
2022-10-14T16:28:10.073Z,18.00
2022-10-14T16:30:40.903Z,17.90
2022-10-14T16:33:09.107Z,17.90
2022-10-14T16:35:37.694Z,18.00
2022-10-14T16:38:06.176Z,18.10
2022-10-14T16:40:38.209Z,18.30
2022-10-14T16:43:07.695Z,18.40
2022-10-14T16:45:36.635Z,17.60
2022-10-14T16:48:06.153Z,18.10
2022-10-14T16:50:35.330Z,17.90
2022-10-14T16:53:22.005Z,17.90
2022-10-14T16:55:53.039Z,17.70
2022-10-14T16:58:21.932Z,17.80
2022-10-14T17:00:51.203Z,17.90
2022-10-14T17:03:22.714Z,18.00
2022-10-14T17:05:59.127Z,18.00
2022-10-14T17:08:27.801Z,17.70
2022-10-14T17:11:02.708Z,17.80
2022-10-14T17:13:31.181Z,17.90
2022-10-14T17:16:02.119Z,17.90
2022-10-14T17:18:34.538Z,17.90
2022-10-14T17:21:07.286Z,17.70
2022-10-14T17:23:37.109Z,17.80
2022-10-14T17:26:07.164Z,17.90
2022-10-14T17:28:35.548Z,17.90
2022-10-14T17:31:07.748Z,18.10
2022-10-14T17:33:36.072Z,18.00
2022-10-14T17:36:06.503Z,18.00
2022-10-14T17:38:36.243Z,18.00
2022-10-14T17:41:07.129Z,18.10
2022-10-14T17:43:37.515Z,17.90
2022-10-14T17:48:36.727Z,18.10
2022-10-14T17:51:05.530Z,18.10
2022-10-14T17:53:33.685Z,18.00
2022-10-14T17:56:04.564Z,18.00
2022-10-14T17:58:34.468Z,18.10
2022-10-14T18:01:06.784Z,18.20
2022-10-14T18:03:35.177Z,18.20
2022-10-14T18:06:10.368Z,18.10
2022-10-14T18:08:40.338Z,18.00
2022-10-14T18:11:10.782Z,18.10
2022-10-14T18:13:41.451Z,18.20
2022-10-14T18:16:12.022Z,18.30
2022-10-14T18:18:41.158Z,18.20
2022-10-14T18:21:10.290Z,18.00
2022-10-14T18:23:42.288Z,18.00
2022-10-14T18:26:13.492Z,18.00
2022-10-14T18:28:44.981Z,18.10
2022-10-14T18:31:15.269Z,18.10
2022-10-14T18:33:44.856Z,18.20
2022-10-14T18:36:15.129Z,18.20
2022-10-14T18:38:44.041Z,18.30
2022-10-14T18:41:14.301Z,18.20
2022-10-14T18:43:43.837Z,17.90
2022-10-14T18:46:14.150Z,18.10
2022-10-14T18:48:43.378Z,18.00
2022-10-14T18:51:12.652Z,18.20
2022-10-14T18:53:43.602Z,18.30
2022-10-14T18:56:15.400Z,18.30
2022-10-14T18:58:45.887Z,18.30
2022-10-14T19:01:15.201Z,18.30
2022-10-14T19:03:44.214Z,18.30
2022-10-14T19:06:13.726Z,18.20
2022-10-14T19:08:45.566Z,18.10
2022-10-14T19:11:18.006Z,18.00
2022-10-14T19:13:48.114Z,17.90
2022-10-14T19:16:19.042Z,17.90
2022-10-14T19:18:47.898Z,18.00
2022-10-14T19:21:19.391Z,18.20
2022-10-14T19:23:47.667Z,18.10
2022-10-14T19:28:53.421Z,18.00
2022-10-14T19:31:24.808Z,17.90
2022-10-14T19:33:54.155Z,17.90
2022-10-14T19:36:24.195Z,17.90
2022-10-14T19:38:57.674Z,17.80
2022-10-14T19:41:27.287Z,17.80
2022-10-14T19:43:58.552Z,17.80
2022-10-14T19:46:30.850Z,17.70
2022-10-14T19:49:02.394Z,17.60
2022-10-14T19:51:30.962Z,17.60
2022-10-14T19:53:59.626Z,17.60
2022-10-14T19:56:28.697Z,17.70
2022-10-14T19:58:59.912Z,17.90
2022-10-14T20:01:29.536Z,17.90
2022-10-14T20:04:00.275Z,17.90
2022-10-14T20:06:31.423Z,17.70
2022-10-14T20:08:59.982Z,17.60
2022-10-14T20:11:28.635Z,17.60
2022-10-14T20:13:58.661Z,17.80
2022-10-14T20:16:28.101Z,17.70
2022-10-14T20:18:56.571Z,17.90
2022-10-14T20:21:25.075Z,18.00
2022-10-14T20:23:53.329Z,18.10
2022-10-14T20:26:22.859Z,18.00
2022-10-14T20:28:51.725Z,17.90
2022-10-14T20:31:25.318Z,18.00
2022-10-14T20:33:53.530Z,17.90
2022-10-14T20:36:23.150Z,17.90
2022-10-14T20:38:51.832Z,17.90
2022-10-14T20:41:21.633Z,18.00
2022-10-14T20:43:50.352Z,18.10
2022-10-14T20:46:19.063Z,18.20
2022-10-14T20:48:49.092Z,18.10
2022-10-14T20:51:19.584Z,18.10
2022-10-14T20:53:47.770Z,18.10
2022-10-14T20:56:16.059Z,18.10
2022-10-14T20:58:44.320Z,18.00
2022-10-14T21:01:15.168Z,18.00
2022-10-14T21:03:44.984Z,18.10
2022-10-14T21:06:16.326Z,18.10
2022-10-14T21:08:45.133Z,18.10
2022-10-14T21:11:15.743Z,18.10
2022-10-14T21:13:46.435Z,18.00
2022-10-14T21:16:16.563Z,17.90
2022-10-14T21:18:49.713Z,17.90
2022-10-14T21:21:22.190Z,17.60
2022-10-14T21:23:50.455Z,17.60
2022-10-14T21:26:18.809Z,17.50
2022-10-14T21:28:47.015Z,17.70
2022-10-14T21:31:19.028Z,17.80
2022-10-14T21:33:48.125Z,17.90
2022-10-14T21:36:17.303Z,17.80
2022-10-14T21:38:46.928Z,17.80
2022-10-14T21:41:15.155Z,17.70
2022-10-14T21:43:43.657Z,17.70
2022-10-14T21:46:13.739Z,17.80
2022-10-14T21:48:43.474Z,17.80
2022-10-14T21:51:14.127Z,17.80
2022-10-14T21:53:43.762Z,17.90
2022-10-14T21:56:15.032Z,18.00
2022-10-14T21:58:43.512Z,18.10
2022-10-14T22:01:14.382Z,18.00
2022-10-14T22:03:43.761Z,17.90
2022-10-14T22:06:14.065Z,17.90
2022-10-14T22:08:43.756Z,17.80
2022-10-14T22:11:19.132Z,17.90
2022-10-14T22:13:47.803Z,17.80
2022-10-14T22:16:16.983Z,17.90
2022-10-14T22:18:46.812Z,17.90
2022-10-14T22:21:16.801Z,18.00
2022-10-14T22:23:45.647Z,18.00
2022-10-14T22:26:17.827Z,18.00
2022-10-14T22:28:46.198Z,18.10
2022-10-14T22:31:16.742Z,18.10
2022-10-14T22:33:45.329Z,18.20
2022-10-14T22:36:19.371Z,18.10
2022-10-14T22:38:51.885Z,18.00
2022-10-14T22:41:23.345Z,18.10
2022-10-14T22:43:53.979Z,18.10
2022-10-14T22:46:24.267Z,18.10
2022-10-14T22:48:56.133Z,18.20
2022-10-14T22:53:55.373Z,18.20
2022-10-14T22:56:27.121Z,18.10
2022-10-14T22:58:55.751Z,18.10
2022-10-14T23:01:26.027Z,18.20
2022-10-14T23:03:54.830Z,18.20
2022-10-14T23:06:23.102Z,18.20
2022-10-14T23:08:51.322Z,18.30
2022-10-14T23:11:21.961Z,18.20
2022-10-14T23:13:51.655Z,18.10
2022-10-14T23:16:21.534Z,18.00
2022-10-14T23:18:50.531Z,18.00
2022-10-14T23:21:21.334Z,17.90
2022-10-14T23:23:50.703Z,18.00
2022-10-14T23:26:21.350Z,18.10
2022-10-14T23:28:52.610Z,18.00
2022-10-14T23:31:22.931Z,18.10
2022-10-14T23:33:52.482Z,18.10
2022-10-14T23:36:21.906Z,18.20
2022-10-14T23:38:51.664Z,18.20
2022-10-14T23:41:22.079Z,18.10
2022-10-14T23:43:52.710Z,18.00
2022-10-14T23:46:21.367Z,18.00
2022-10-14T23:49:01.104Z,17.90
2022-10-14T23:51:36.486Z,17.90
2022-10-14T23:54:05.157Z,17.80
2022-10-14T23:56:33.448Z,17.90
2022-10-14T23:59:03.052Z,18.00
